San Antonio Abad, Spain
Current Conditions -  °F | °C
As of 10:00 PM on Sunday 23 Nov 2014 (Local Time) from LEIB Reporting Station
Clear Clear  
Wind Chill: 66°   Ceiling: Unl
Heat Index: 66°   Visibility: 6mi
Dew Point: 59°   Wind: 5mph
Humidity: 78%   Direction: 30°NNE
Pressure: 29.94"   Gusts: NA
Location:  38.98°N, 1.31°E
Report Text: LEIB 232100Z 03004KT CAVOK 19/15 Q1014 NOSIG
Loading
Personal Weather Stations






























Interactive Weather Map New forecast layout! Learn more

10-Day Weather Forecast

Advertisements
Track Severe Weather on mobile